sensor_id;sensor_type;location;lat;lon;timestamp;P1;durP1;ratioP1;P2;durP2;ratioP2
20844;SDS011;10583;49.084;8.646;2023-02-03T00:01:18;2.10;;;2.10;;
20844;SDS011;10583;49.084;8.646;2023-02-03T00:03:44;2.10;;;2.10;;
20844;SDS011;10583;49.084;8.646;2023-02-03T00:06:11;2.83;;;2.83;;
20844;SDS011;10583;49.084;8.646;2023-02-03T00:08:38;2.50;;;2.50;;
20844;SDS011;10583;49.084;8.646;2023-02-03T00:11:04;2.77;;;2.77;;
20844;SDS011;10583;49.084;8.646;2023-02-03T00:13:32;2.40;;;2.40;;
20844;SDS011;10583;49.084;8.646;2023-02-03T00:15:59;2.77;;;2.77;;
20844;SDS011;10583;49.084;8.646;2023-02-03T00:18:28;2.70;;;2.70;;
20844;SDS011;10583;49.084;8.646;2023-02-03T00:20:54;2.63;;;2.63;;
20844;SDS011;10583;49.084;8.646;2023-02-03T00:23:21;2.43;;;2.43;;
20844;SDS011;10583;49.084;8.646;2023-02-03T00:25:49;2.87;;;2.87;;
20844;SDS011;10583;49.084;8.646;2023-02-03T00:28:16;2.60;;;2.60;;
20844;SDS011;10583;49.084;8.646;2023-02-03T00:30:43;2.50;;;2.50;;
20844;SDS011;10583;49.084;8.646;2023-02-03T00:33:09;2.80;;;2.80;;
20844;SDS011;10583;49.084;8.646;2023-02-03T00:35:38;2.53;;;2.53;;
20844;SDS011;10583;49.084;8.646;2023-02-03T00:38:05;2.53;;;2.53;;
20844;SDS011;10583;49.084;8.646;2023-02-03T00:40:32;2.60;;;2.60;;
20844;SDS011;10583;49.084;8.646;2023-02-03T00:42:58;2.60;;;2.60;;
20844;SDS011;10583;49.084;8.646;2023-02-03T00:45:25;2.20;;;2.20;;
20844;SDS011;10583;49.084;8.646;2023-02-03T00:47:52;2.33;;;2.33;;
20844;SDS011;10583;49.084;8.646;2023-02-03T00:50:18;2.80;;;2.80;;
20844;SDS011;10583;49.084;8.646;2023-02-03T00:52:46;2.43;;;2.43;;
20844;SDS011;10583;49.084;8.646;2023-02-03T00:55:13;2.50;;;2.50;;
20844;SDS011;10583;49.084;8.646;2023-02-03T00:57:40;2.30;;;2.30;;
20844;SDS011;10583;49.084;8.646;2023-02-03T01:00:07;2.47;;;2.47;;
20844;SDS011;10583;49.084;8.646;2023-02-03T01:02:34;2.30;;;2.30;;
20844;SDS011;10583;49.084;8.646;2023-02-03T01:05:01;2.57;;;2.57;;
20844;SDS011;10583;49.084;8.646;2023-02-03T01:07:30;2.60;;;2.60;;
20844;SDS011;10583;49.084;8.646;2023-02-03T01:09:58;2.50;;;2.50;;
20844;SDS011;10583;49.084;8.646;2023-02-03T01:12:25;2.43;;;2.43;;
20844;SDS011;10583;49.084;8.646;2023-02-03T01:14:54;2.53;;;2.53;;
20844;SDS011;10583;49.084;8.646;2023-02-03T01:17:21;2.43;;;2.43;;
20844;SDS011;10583;49.084;8.646;2023-02-03T01:19:48;2.33;;;2.33;;
20844;SDS011;10583;49.084;8.646;2023-02-03T01:22:15;2.67;;;2.67;;
20844;SDS011;10583;49.084;8.646;2023-02-03T01:24:42;2.70;;;2.70;;
20844;SDS011;10583;49.084;8.646;2023-02-03T01:27:10;2.33;;;2.33;;
20844;SDS011;10583;49.084;8.646;2023-02-03T01:29:37;2.37;;;2.37;;
20844;SDS011;10583;49.084;8.646;2023-02-03T01:32:04;2.50;;;2.50;;
20844;SDS011;10583;49.084;8.646;2023-02-03T01:34:30;2.67;;;2.67;;
20844;SDS011;10583;49.084;8.646;2023-02-03T01:36:57;2.50;;;2.50;;
20844;SDS011;10583;49.084;8.646;2023-02-03T01:39:24;2.40;;;2.40;;
20844;SDS011;10583;49.084;8.646;2023-02-03T01:41:53;2.50;;;2.50;;
20844;SDS011;10583;49.084;8.646;2023-02-03T01:44:41;2.70;;;2.70;;
20844;SDS011;10583;49.084;8.646;2023-02-03T01:47:11;2.20;;;2.20;;
20844;SDS011;10583;49.084;8.646;2023-02-03T01:49:47;2.00;;;2.00;;
20844;SDS011;10583;49.084;8.646;2023-02-03T01:52:17;2.40;;;2.40;;
20844;SDS011;10583;49.084;8.646;2023-02-03T01:54:44;2.53;;;2.53;;
20844;SDS011;10583;49.084;8.646;2023-02-03T01:57:14;2.70;;;2.70;;
20844;SDS011;10583;49.084;8.646;2023-02-03T01:59:46;2.90;;;2.90;;
20844;SDS011;10583;49.084;8.646;2023-02-03T02:02:14;2.30;;;2.30;;
20844;SDS011;10583;49.084;8.646;2023-02-03T02:04:42;2.60;;;2.60;;
20844;SDS011;10583;49.084;8.646;2023-02-03T02:07:15;2.40;;;2.40;;
20844;SDS011;10583;49.084;8.646;2023-02-03T02:09:42;2.50;;;2.50;;
20844;SDS011;10583;49.084;8.646;2023-02-03T02:12:10;2.40;;;2.40;;
20844;SDS011;10583;49.084;8.646;2023-02-03T02:14:37;2.07;;;2.07;;
20844;SDS011;10583;49.084;8.646;2023-02-03T02:17:08;2.03;;;2.03;;
20844;SDS011;10583;49.084;8.646;2023-02-03T02:19:51;2.20;;;2.20;;
20844;SDS011;10583;49.084;8.646;2023-02-03T02:22:37;2.73;;;2.73;;
20844;SDS011;10583;49.084;8.646;2023-02-03T02:25:27;2.60;;;2.60;;
20844;SDS011;10583;49.084;8.646;2023-02-03T02:28:26;2.33;;;2.33;;
20844;SDS011;10583;49.084;8.646;2023-02-03T02:34:07;2.67;;;2.67;;
20844;SDS011;10583;49.084;8.646;2023-02-03T02:36:41;2.67;;;2.67;;
20844;SDS011;10583;49.084;8.646;2023-02-03T02:39:16;2.13;;;2.13;;
20844;SDS011;10583;49.084;8.646;2023-02-03T02:41:50;2.23;;;2.23;;
20844;SDS011;10583;49.084;8.646;2023-02-03T02:44:24;2.20;;;2.20;;
20844;SDS011;10583;49.084;8.646;2023-02-03T02:46:57;2.10;;;2.10;;
20844;SDS011;10583;49.084;8.646;2023-02-03T02:49:29;2.60;;;2.60;;
20844;SDS011;10583;49.084;8.646;2023-02-03T02:52:00;2.33;;;2.33;;
20844;SDS011;10583;49.084;8.646;2023-02-03T02:54:30;2.20;;;2.20;;
20844;SDS011;10583;49.084;8.646;2023-02-03T02:56:59;2.20;;;2.20;;
20844;SDS011;10583;49.084;8.646;2023-02-03T02:59:28;2.10;;;2.10;;
20844;SDS011;10583;49.084;8.646;2023-02-03T03:01:56;2.30;;;2.30;;
20844;SDS011;10583;49.084;8.646;2023-02-03T03:04:24;2.50;;;2.50;;
20844;SDS011;10583;49.084;8.646;2023-02-03T03:06:52;2.30;;;2.30;;
20844;SDS011;10583;49.084;8.646;2023-02-03T03:09:24;2.23;;;2.23;;
20844;SDS011;10583;49.084;8.646;2023-02-03T03:12:00;2.57;;;2.57;;
20844;SDS011;10583;49.084;8.646;2023-02-03T03:14:30;2.30;;;2.30;;
20844;SDS011;10583;49.084;8.646;2023-02-03T03:17:00;2.20;;;2.20;;
20844;SDS011;10583;49.084;8.646;2023-02-03T03:19:31;2.13;;;2.13;;
20844;SDS011;10583;49.084;8.646;2023-02-03T03:22:01;2.27;;;2.27;;
20844;SDS011;10583;49.084;8.646;2023-02-03T03:24:30;2.13;;;2.13;;
20844;SDS011;10583;49.084;8.646;2023-02-03T03:27:00;2.30;;;2.30;;
20844;SDS011;10583;49.084;8.646;2023-02-03T03:29:32;2.53;;;2.53;;
20844;SDS011;10583;49.084;8.646;2023-02-03T03:32:03;2.00;;;2.00;;
20844;SDS011;10583;49.084;8.646;2023-02-03T03:34:30;2.23;;;2.23;;
20844;SDS011;10583;49.084;8.646;2023-02-03T03:37:00;2.20;;;2.20;;
20844;SDS011;10583;49.084;8.646;2023-02-03T03:39:33;2.30;;;2.30;;
20844;SDS011;10583;49.084;8.646;2023-02-03T03:42:09;2.30;;;2.30;;
20844;SDS011;10583;49.084;8.646;2023-02-03T03:44:45;2.53;;;2.53;;
20844;SDS011;10583;49.084;8.646;2023-02-03T03:47:18;2.10;;;2.10;;
20844;SDS011;10583;49.084;8.646;2023-02-03T03:49:49;2.03;;;2.03;;
20844;SDS011;10583;49.084;8.646;2023-02-03T03:52:19;2.13;;;2.13;;
20844;SDS011;10583;49.084;8.646;2023-02-03T03:54:48;2.23;;;2.23;;
20844;SDS011;10583;49.084;8.646;2023-02-03T03:57:17;1.97;;;1.97;;
20844;SDS011;10583;49.084;8.646;2023-02-03T03:59:47;2.43;;;2.43;;
20844;SDS011;10583;49.084;8.646;2023-02-03T04:02:15;2.27;;;2.27;;
20844;SDS011;10583;49.084;8.646;2023-02-03T04:04:44;2.50;;;2.50;;
20844;SDS011;10583;49.084;8.646;2023-02-03T04:07:13;2.20;;;2.20;;
20844;SDS011;10583;49.084;8.646;2023-02-03T04:09:40;2.07;;;2.07;;
20844;SDS011;10583;49.084;8.646;2023-02-03T04:12:08;2.40;;;2.40;;
20844;SDS011;10583;49.084;8.646;2023-02-03T04:14:44;2.10;;;2.10;;
20844;SDS011;10583;49.084;8.646;2023-02-03T04:17:10;2.20;;;2.20;;
20844;SDS011;10583;49.084;8.646;2023-02-03T04:19:38;2.20;;;2.20;;
20844;SDS011;10583;49.084;8.646;2023-02-03T04:22:05;2.30;;;2.30;;
20844;SDS011;10583;49.084;8.646;2023-02-03T04:24:32;2.50;;;2.50;;
20844;SDS011;10583;49.084;8.646;2023-02-03T04:26:59;2.37;;;2.37;;
20844;SDS011;10583;49.084;8.646;2023-02-03T04:29:25;2.10;;;2.10;;
20844;SDS011;10583;49.084;8.646;2023-02-03T04:31:52;2.30;;;2.30;;
20844;SDS011;10583;49.084;8.646;2023-02-03T04:34:18;2.20;;;2.20;;
20844;SDS011;10583;49.084;8.646;2023-02-03T04:36:47;2.40;;;2.40;;
20844;SDS011;10583;49.084;8.646;2023-02-03T04:39:13;2.30;;;2.30;;
20844;SDS011;10583;49.084;8.646;2023-02-03T04:41:40;2.10;;;2.10;;
20844;SDS011;10583;49.084;8.646;2023-02-03T04:44:07;2.33;;;2.33;;
20844;SDS011;10583;49.084;8.646;2023-02-03T04:46:34;2.93;;;2.93;;
20844;SDS011;10583;49.084;8.646;2023-02-03T04:49:01;2.60;;;2.60;;
20844;SDS011;10583;49.084;8.646;2023-02-03T04:51:28;2.63;;;2.63;;
20844;SDS011;10583;49.084;8.646;2023-02-03T04:53:56;2.07;;;2.07;;
20844;SDS011;10583;49.084;8.646;2023-02-03T04:56:22;2.60;;;2.60;;
20844;SDS011;10583;49.084;8.646;2023-02-03T04:58:49;2.53;;;2.53;;
20844;SDS011;10583;49.084;8.646;2023-02-03T05:01:16;2.43;;;2.43;;
20844;SDS011;10583;49.084;8.646;2023-02-03T05:03:42;2.27;;;2.27;;
20844;SDS011;10583;49.084;8.646;2023-02-03T05:06:09;2.10;;;2.10;;
20844;SDS011;10583;49.084;8.646;2023-02-03T05:08:36;2.40;;;2.40;;
20844;SDS011;10583;49.084;8.646;2023-02-03T05:11:04;2.13;;;2.13;;
20844;SDS011;10583;49.084;8.646;2023-02-03T05:13:30;2.50;;;2.50;;
20844;SDS011;10583;49.084;8.646;2023-02-03T05:15:57;2.13;;;2.13;;
20844;SDS011;10583;49.084;8.646;2023-02-03T05:18:24;2.33;;;2.33;;
20844;SDS011;10583;49.084;8.646;2023-02-03T05:20:51;2.33;;;2.33;;
20844;SDS011;10583;49.084;8.646;2023-02-03T05:23:17;2.30;;;2.30;;
20844;SDS011;10583;49.084;8.646;2023-02-03T05:25:44;2.20;;;2.20;;
20844;SDS011;10583;49.084;8.646;2023-02-03T05:28:12;2.20;;;2.20;;
20844;SDS011;10583;49.084;8.646;2023-02-03T05:30:38;2.00;;;2.00;;
20844;SDS011;10583;49.084;8.646;2023-02-03T05:33:05;2.00;;;2.00;;
20844;SDS011;10583;49.084;8.646;2023-02-03T05:35:32;2.17;;;2.17;;
20844;SDS011;10583;49.084;8.646;2023-02-03T05:37:58;2.27;;;2.27;;
20844;SDS011;10583;49.084;8.646;2023-02-03T05:40:25;1.93;;;1.93;;
20844;SDS011;10583;49.084;8.646;2023-02-03T05:43:10;2.60;;;2.60;;
20844;SDS011;10583;49.084;8.646;2023-02-03T05:45:38;2.13;;;2.13;;
20844;SDS011;10583;49.084;8.646;2023-02-03T05:48:05;1.93;;;1.93;;
20844;SDS011;10583;49.084;8.646;2023-02-03T05:50:32;2.20;;;2.20;;
20844;SDS011;10583;49.084;8.646;2023-02-03T05:52:59;2.47;;;2.47;;
20844;SDS011;10583;49.084;8.646;2023-02-03T05:55:26;2.37;;;2.37;;
20844;SDS011;10583;49.084;8.646;2023-02-03T05:57:53;2.37;;;2.37;;
20844;SDS011;10583;49.084;8.646;2023-02-03T06:00:22;1.90;;;1.90;;
20844;SDS011;10583;49.084;8.646;2023-02-03T06:02:50;2.10;;;2.10;;
20844;SDS011;10583;49.084;8.646;2023-02-03T06:05:17;2.13;;;2.13;;
20844;SDS011;10583;49.084;8.646;2023-02-03T06:07:44;2.40;;;2.40;;
20844;SDS011;10583;49.084;8.646;2023-02-03T06:10:10;2.20;;;2.20;;
20844;SDS011;10583;49.084;8.646;2023-02-03T06:12:37;2.10;;;2.10;;
20844;SDS011;10583;49.084;8.646;2023-02-03T06:15:04;2.40;;;2.40;;
20844;SDS011;10583;49.084;8.646;2023-02-03T06:17:32;2.03;;;2.03;;
20844;SDS011;10583;49.084;8.646;2023-02-03T06:20:00;2.40;;;2.40;;
20844;SDS011;10583;49.084;8.646;2023-02-03T06:22:27;2.23;;;2.23;;
20844;SDS011;10583;49.084;8.646;2023-02-03T06:24:53;2.50;;;2.50;;
20844;SDS011;10583;49.084;8.646;2023-02-03T06:27:20;2.33;;;2.33;;
20844;SDS011;10583;49.084;8.646;2023-02-03T06:29:47;2.40;;;2.40;;
20844;SDS011;10583;49.084;8.646;2023-02-03T06:32:14;2.20;;;2.20;;
20844;SDS011;10583;49.084;8.646;2023-02-03T06:34:42;2.13;;;2.13;;
20844;SDS011;10583;49.084;8.646;2023-02-03T06:37:08;2.40;;;2.40;;
20844;SDS011;10583;49.084;8.646;2023-02-03T06:39:36;2.20;;;2.20;;
20844;SDS011;10583;49.084;8.646;2023-02-03T06:42:03;2.23;;;2.23;;
20844;SDS011;10583;49.084;8.646;2023-02-03T06:44:30;2.30;;;2.30;;
20844;SDS011;10583;49.084;8.646;2023-02-03T06:46:57;2.30;;;2.30;;
20844;SDS011;10583;49.084;8.646;2023-02-03T06:49:23;2.40;;;2.40;;
20844;SDS011;10583;49.084;8.646;2023-02-03T06:51:51;2.40;;;2.40;;
20844;SDS011;10583;49.084;8.646;2023-02-03T06:54:18;2.43;;;2.43;;
20844;SDS011;10583;49.084;8.646;2023-02-03T06:56:45;2.43;;;2.43;;
20844;SDS011;10583;49.084;8.646;2023-02-03T06:59:12;2.60;;;2.60;;
20844;SDS011;10583;49.084;8.646;2023-02-03T07:01:38;2.33;;;2.33;;
20844;SDS011;10583;49.084;8.646;2023-02-03T07:04:05;2.43;;;2.43;;
20844;SDS011;10583;49.084;8.646;2023-02-03T07:06:32;2.70;;;2.70;;
20844;SDS011;10583;49.084;8.646;2023-02-03T07:09:00;2.90;;;2.90;;
20844;SDS011;10583;49.084;8.646;2023-02-03T07:11:28;2.23;;;2.23;;
20844;SDS011;10583;49.084;8.646;2023-02-03T07:13:55;2.87;;;2.87;;
20844;SDS011;10583;49.084;8.646;2023-02-03T07:16:22;2.30;;;2.30;;
20844;SDS011;10583;49.084;8.646;2023-02-03T07:18:51;2.33;;;2.33;;
20844;SDS011;10583;49.084;8.646;2023-02-03T07:21:18;2.00;;;2.00;;
20844;SDS011;10583;49.084;8.646;2023-02-03T07:23:45;2.40;;;2.40;;
20844;SDS011;10583;49.084;8.646;2023-02-03T07:26:15;2.50;;;2.50;;
20844;SDS011;10583;49.084;8.646;2023-02-03T07:28:42;2.80;;;2.80;;
20844;SDS011;10583;49.084;8.646;2023-02-03T07:31:10;2.40;;;2.40;;
20844;SDS011;10583;49.084;8.646;2023-02-03T07:33:37;2.40;;;2.40;;
20844;SDS011;10583;49.084;8.646;2023-02-03T07:36:04;2.70;;;2.70;;
20844;SDS011;10583;49.084;8.646;2023-02-03T07:38:32;2.70;;;2.70;;
20844;SDS011;10583;49.084;8.646;2023-02-03T07:40:59;2.33;;;2.33;;
20844;SDS011;10583;49.084;8.646;2023-02-03T07:43:27;2.43;;;2.43;;
20844;SDS011;10583;49.084;8.646;2023-02-03T07:45:53;2.53;;;2.53;;
20844;SDS011;10583;49.084;8.646;2023-02-03T07:48:20;2.20;;;2.20;;
20844;SDS011;10583;49.084;8.646;2023-02-03T07:50:47;2.77;;;2.77;;
20844;SDS011;10583;49.084;8.646;2023-02-03T07:53:14;2.87;;;2.87;;
20844;SDS011;10583;49.084;8.646;2023-02-03T07:55:41;3.20;;;3.20;;
20844;SDS011;10583;49.084;8.646;2023-02-03T07:58:08;2.90;;;2.90;;
20844;SDS011;10583;49.084;8.646;2023-02-03T08:00:36;3.37;;;3.37;;
20844;SDS011;10583;49.084;8.646;2023-02-03T08:03:03;3.43;;;3.43;;
20844;SDS011;10583;49.084;8.646;2023-02-03T08:05:29;3.73;;;3.73;;
20844;SDS011;10583;49.084;8.646;2023-02-03T08:07:56;3.20;;;3.20;;
20844;SDS011;10583;49.084;8.646;2023-02-03T08:10:23;3.00;;;3.00;;
20844;SDS011;10583;49.084;8.646;2023-02-03T08:12:51;3.30;;;3.30;;
20844;SDS011;10583;49.084;8.646;2023-02-03T08:15:18;3.10;;;3.10;;
20844;SDS011;10583;49.084;8.646;2023-02-03T08:17:46;2.63;;;2.63;;
20844;SDS011;10583;49.084;8.646;2023-02-03T08:20:14;2.70;;;2.70;;
20844;SDS011;10583;49.084;8.646;2023-02-03T08:22:41;3.40;;;3.40;;
20844;SDS011;10583;49.084;8.646;2023-02-03T08:25:08;2.97;;;2.97;;
20844;SDS011;10583;49.084;8.646;2023-02-03T08:27:35;3.00;;;3.00;;
20844;SDS011;10583;49.084;8.646;2023-02-03T08:30:02;2.80;;;2.80;;
20844;SDS011;10583;49.084;8.646;2023-02-03T08:32:31;3.23;;;3.23;;
20844;SDS011;10583;49.084;8.646;2023-02-03T08:35:00;2.93;;;2.93;;
20844;SDS011;10583;49.084;8.646;2023-02-03T08:37:27;2.60;;;2.60;;
20844;SDS011;10583;49.084;8.646;2023-02-03T08:39:55;2.80;;;2.80;;
20844;SDS011;10583;49.084;8.646;2023-02-03T08:42:22;2.70;;;2.70;;
20844;SDS011;10583;49.084;8.646;2023-02-03T08:44:49;3.03;;;3.03;;
20844;SDS011;10583;49.084;8.646;2023-02-03T08:47:15;3.03;;;3.03;;
20844;SDS011;10583;49.084;8.646;2023-02-03T08:49:42;3.10;;;3.10;;
20844;SDS011;10583;49.084;8.646;2023-02-03T08:52:10;2.53;;;2.53;;
20844;SDS011;10583;49.084;8.646;2023-02-03T08:54:38;2.40;;;2.40;;
20844;SDS011;10583;49.084;8.646;2023-02-03T08:57:05;2.90;;;2.90;;
20844;SDS011;10583;49.084;8.646;2023-02-03T08:59:33;2.73;;;2.73;;
20844;SDS011;10583;49.084;8.646;2023-02-03T09:02:01;2.90;;;2.90;;
20844;SDS011;10583;49.084;8.646;2023-02-03T09:04:28;2.70;;;2.70;;
20844;SDS011;10583;49.084;8.646;2023-02-03T09:06:57;2.20;;;2.20;;
20844;SDS011;10583;49.084;8.646;2023-02-03T09:09:25;2.60;;;2.60;;
20844;SDS011;10583;49.084;8.646;2023-02-03T09:11:53;2.83;;;2.83;;
20844;SDS011;10583;49.084;8.646;2023-02-03T09:14:25;2.70;;;2.70;;
20844;SDS011;10583;49.084;8.646;2023-02-03T09:16:53;3.07;;;3.07;;
20844;SDS011;10583;49.084;8.646;2023-02-03T09:19:19;2.93;;;2.93;;
20844;SDS011;10583;49.084;8.646;2023-02-03T09:21:46;2.80;;;2.80;;
20844;SDS011;10583;49.084;8.646;2023-02-03T09:24:13;2.50;;;2.50;;
20844;SDS011;10583;49.084;8.646;2023-02-03T09:26:41;2.40;;;2.40;;
20844;SDS011;10583;49.084;8.646;2023-02-03T09:29:08;2.93;;;2.93;;
20844;SDS011;10583;49.084;8.646;2023-02-03T09:31:35;2.50;;;2.50;;
20844;SDS011;10583;49.084;8.646;2023-02-03T09:34:01;2.90;;;2.90;;
20844;SDS011;10583;49.084;8.646;2023-02-03T09:36:28;2.50;;;2.50;;
20844;SDS011;10583;49.084;8.646;2023-02-03T09:38:55;2.67;;;2.67;;
20844;SDS011;10583;49.084;8.646;2023-02-03T09:41:25;2.80;;;2.80;;
20844;SDS011;10583;49.084;8.646;2023-02-03T09:44:08;2.40;;;2.40;;
20844;SDS011;10583;49.084;8.646;2023-02-03T09:46:43;2.43;;;2.43;;
20844;SDS011;10583;49.084;8.646;2023-02-03T09:49:13;2.50;;;2.50;;
20844;SDS011;10583;49.084;8.646;2023-02-03T09:51:45;2.40;;;2.40;;
20844;SDS011;10583;49.084;8.646;2023-02-03T09:54:15;2.60;;;2.60;;
20844;SDS011;10583;49.084;8.646;2023-02-03T09:56:45;2.17;;;2.17;;
20844;SDS011;10583;49.084;8.646;2023-02-03T09:59:17;2.63;;;2.63;;
20844;SDS011;10583;49.084;8.646;2023-02-03T10:01:46;2.77;;;2.77;;
20844;SDS011;10583;49.084;8.646;2023-02-03T10:04:22;3.20;;;3.20;;
20844;SDS011;10583;49.084;8.646;2023-02-03T10:06:59;3.20;;;3.20;;
20844;SDS011;10583;49.084;8.646;2023-02-03T10:09:34;3.00;;;3.00;;
20844;SDS011;10583;49.084;8.646;2023-02-03T10:12:21;2.73;;;2.73;;
20844;SDS011;10583;49.084;8.646;2023-02-03T10:15:05;2.47;;;2.47;;
20844;SDS011;10583;49.084;8.646;2023-02-03T10:17:46;2.77;;;2.77;;
20844;SDS011;10583;49.084;8.646;2023-02-03T10:20:18;2.90;;;2.90;;
20844;SDS011;10583;49.084;8.646;2023-02-03T10:22:49;2.60;;;2.60;;
20844;SDS011;10583;49.084;8.646;2023-02-03T10:25:21;2.50;;;2.50;;
20844;SDS011;10583;49.084;8.646;2023-02-03T10:27:54;2.77;;;2.77;;
20844;SDS011;10583;49.084;8.646;2023-02-03T10:30:26;2.83;;;2.83;;
20844;SDS011;10583;49.084;8.646;2023-02-03T10:32:56;2.73;;;2.73;;
20844;SDS011;10583;49.084;8.646;2023-02-03T10:35:34;2.50;;;2.50;;
20844;SDS011;10583;49.084;8.646;2023-02-03T10:38:05;3.40;;;3.40;;
20844;SDS011;10583;49.084;8.646;2023-02-03T10:40:40;2.50;;;2.50;;
20844;SDS011;10583;49.084;8.646;2023-02-03T10:43:07;2.90;;;2.90;;
20844;SDS011;10583;49.084;8.646;2023-02-03T10:45:53;3.40;;;3.40;;
20844;SDS011;10583;49.084;8.646;2023-02-03T10:48:21;2.50;;;2.50;;
20844;SDS011;10583;49.084;8.646;2023-02-03T10:50:49;2.80;;;2.80;;
20844;SDS011;10583;49.084;8.646;2023-02-03T10:53:19;2.80;;;2.80;;
20844;SDS011;10583;49.084;8.646;2023-02-03T10:55:48;2.80;;;2.80;;
20844;SDS011;10583;49.084;8.646;2023-02-03T10:58:26;3.00;;;3.00;;
20844;SDS011;10583;49.084;8.646;2023-02-03T11:00:57;3.20;;;3.20;;
20844;SDS011;10583;49.084;8.646;2023-02-03T11:03:31;2.93;;;2.93;;
20844;SDS011;10583;49.084;8.646;2023-02-03T11:06:03;2.67;;;2.67;;
20844;SDS011;10583;49.084;8.646;2023-02-03T11:08:33;2.33;;;2.33;;
20844;SDS011;10583;49.084;8.646;2023-02-03T11:11:00;2.70;;;2.70;;
20844;SDS011;10583;49.084;8.646;2023-02-03T11:13:28;2.50;;;2.50;;
20844;SDS011;10583;49.084;8.646;2023-02-03T11:15:57;2.43;;;2.43;;
20844;SDS011;10583;49.084;8.646;2023-02-03T11:18:37;2.83;;;2.83;;
20844;SDS011;10583;49.084;8.646;2023-02-03T11:21:08;2.20;;;2.20;;
20844;SDS011;10583;49.084;8.646;2023-02-03T11:23:36;2.60;;;2.60;;
20844;SDS011;10583;49.084;8.646;2023-02-03T11:26:10;1.83;;;1.83;;
20844;SDS011;10583;49.084;8.646;2023-02-03T11:28:40;2.00;;;2.00;;
20844;SDS011;10583;49.084;8.646;2023-02-03T11:31:17;2.13;;;2.13;;
20844;SDS011;10583;49.084;8.646;2023-02-03T11:33:47;2.30;;;2.30;;
20844;SDS011;10583;49.084;8.646;2023-02-03T11:36:16;2.40;;;2.40;;
20844;SDS011;10583;49.084;8.646;2023-02-03T11:38:43;1.90;;;1.90;;
20844;SDS011;10583;49.084;8.646;2023-02-03T11:41:16;2.07;;;2.07;;
20844;SDS011;10583;49.084;8.646;2023-02-03T11:43:46;2.47;;;2.47;;
20844;SDS011;10583;49.084;8.646;2023-02-03T11:46:13;2.47;;;2.47;;
20844;SDS011;10583;49.084;8.646;2023-02-03T11:48:45;2.30;;;2.30;;
20844;SDS011;10583;49.084;8.646;2023-02-03T11:51:21;2.07;;;2.07;;
20844;SDS011;10583;49.084;8.646;2023-02-03T11:54:01;2.10;;;2.10;;
20844;SDS011;10583;49.084;8.646;2023-02-03T11:56:53;2.10;;;2.10;;
20844;SDS011;10583;49.084;8.646;2023-02-03T11:59:35;2.17;;;2.17;;
20844;SDS011;10583;49.084;8.646;2023-02-03T12:02:30;2.07;;;2.07;;
20844;SDS011;10583;49.084;8.646;2023-02-03T12:05:16;1.90;;;1.90;;
20844;SDS011;10583;49.084;8.646;2023-02-03T12:07:59;1.73;;;1.73;;
20844;SDS011;10583;49.084;8.646;2023-02-03T12:10:46;2.07;;;2.07;;
20844;SDS011;10583;49.084;8.646;2023-02-03T12:13:25;1.73;;;1.73;;
20844;SDS011;10583;49.084;8.646;2023-02-03T12:16:12;2.13;;;2.13;;
20844;SDS011;10583;49.084;8.646;2023-02-03T12:18:55;1.70;;;1.70;;
20844;SDS011;10583;49.084;8.646;2023-02-03T12:21:36;1.70;;;1.70;;
20844;SDS011;10583;49.084;8.646;2023-02-03T12:24:10;1.83;;;1.83;;
20844;SDS011;10583;49.084;8.646;2023-02-03T12:26:45;1.40;;;1.40;;
20844;SDS011;10583;49.084;8.646;2023-02-03T12:29:21;1.13;;;1.13;;
20844;SDS011;10583;49.084;8.646;2023-02-03T12:31:59;0.83;;;0.83;;
20844;SDS011;10583;49.084;8.646;2023-02-03T12:34:30;0.90;;;0.90;;
20844;SDS011;10583;49.084;8.646;2023-02-03T12:37:04;0.93;;;0.93;;
20844;SDS011;10583;49.084;8.646;2023-02-03T12:39:34;1.00;;;1.00;;
20844;SDS011;10583;49.084;8.646;2023-02-03T12:42:06;0.90;;;0.90;;
20844;SDS011;10583;49.084;8.646;2023-02-03T12:44:39;0.80;;;0.80;;
20844;SDS011;10583;49.084;8.646;2023-02-03T12:47:12;1.30;;;1.30;;
20844;SDS011;10583;49.084;8.646;2023-02-03T12:49:43;1.10;;;1.10;;
20844;SDS011;10583;49.084;8.646;2023-02-03T12:52:19;1.07;;;1.07;;
20844;SDS011;10583;49.084;8.646;2023-02-03T12:54:53;0.97;;;0.97;;
20844;SDS011;10583;49.084;8.646;2023-02-03T12:57:27;0.97;;;0.97;;
20844;SDS011;10583;49.084;8.646;2023-02-03T13:03:02;0.93;;;0.93;;
20844;SDS011;10583;49.084;8.646;2023-02-03T13:05:38;0.90;;;0.90;;
20844;SDS011;10583;49.084;8.646;2023-02-03T13:08:12;1.07;;;1.07;;
20844;SDS011;10583;49.084;8.646;2023-02-03T13:10:44;1.27;;;1.27;;
20844;SDS011;10583;49.084;8.646;2023-02-03T13:13:14;1.10;;;1.10;;
20844;SDS011;10583;49.084;8.646;2023-02-03T13:15:48;0.93;;;0.93;;
20844;SDS011;10583;49.084;8.646;2023-02-03T13:18:19;1.10;;;1.10;;
20844;SDS011;10583;49.084;8.646;2023-02-03T13:20:52;0.90;;;0.90;;
20844;SDS011;10583;49.084;8.646;2023-02-03T13:23:20;1.07;;;1.07;;
20844;SDS011;10583;49.084;8.646;2023-02-03T13:26:01;0.90;;;0.90;;
20844;SDS011;10583;49.084;8.646;2023-02-03T13:28:46;1.00;;;1.00;;
20844;SDS011;10583;49.084;8.646;2023-02-03T13:31:30;0.90;;;0.90;;
20844;SDS011;10583;49.084;8.646;2023-02-03T13:34:14;1.57;;;1.57;;
20844;SDS011;10583;49.084;8.646;2023-02-03T13:40:07;7.13;;;7.13;;
20844;SDS011;10583;49.084;8.646;2023-02-03T13:42:43;2.90;;;2.90;;
20844;SDS011;10583;49.084;8.646;2023-02-03T13:45:14;1.50;;;1.50;;
20844;SDS011;10583;49.084;8.646;2023-02-03T13:47:48;1.07;;;1.07;;
20844;SDS011;10583;49.084;8.646;2023-02-03T13:50:19;1.40;;;1.40;;
20844;SDS011;10583;49.084;8.646;2023-02-03T13:52:52;1.50;;;1.50;;
20844;SDS011;10583;49.084;8.646;2023-02-03T13:55:27;1.30;;;1.30;;
20844;SDS011;10583;49.084;8.646;2023-02-03T13:57:55;1.03;;;1.03;;
20844;SDS011;10583;49.084;8.646;2023-02-03T14:03:42;1.00;;;1.00;;
20844;SDS011;10583;49.084;8.646;2023-02-03T14:09:19;1.20;;;1.20;;
20844;SDS011;10583;49.084;8.646;2023-02-03T14:11:49;1.00;;;1.00;;
20844;SDS011;10583;49.084;8.646;2023-02-03T14:23:16;1.10;;;1.10;;
20844;SDS011;10583;49.084;8.646;2023-02-03T14:25:50;1.10;;;1.10;;
20844;SDS011;10583;49.084;8.646;2023-02-03T14:28:21;0.90;;;0.90;;
20844;SDS011;10583;49.084;8.646;2023-02-03T14:33:44;1.23;;;1.23;;
20844;SDS011;10583;49.084;8.646;2023-02-03T14:36:33;1.73;;;1.73;;
20844;SDS011;10583;49.084;8.646;2023-02-03T14:42:07;1.60;;;1.60;;
20844;SDS011;10583;49.084;8.646;2023-02-03T14:44:47;1.13;;;1.13;;
20844;SDS011;10583;49.084;8.646;2023-02-03T14:47:26;1.60;;;1.60;;
20844;SDS011;10583;49.084;8.646;2023-02-03T14:50:30;0.90;;;0.90;;
20844;SDS011;10583;49.084;8.646;2023-02-03T14:53:09;1.10;;;1.10;;
20844;SDS011;10583;49.084;8.646;2023-02-03T14:55:51;1.43;;;1.43;;
20844;SDS011;10583;49.084;8.646;2023-02-03T14:58:26;1.10;;;1.10;;
20844;SDS011;10583;49.084;8.646;2023-02-03T15:00:58;1.10;;;1.10;;
20844;SDS011;10583;49.084;8.646;2023-02-03T15:03:28;0.80;;;0.80;;
20844;SDS011;10583;49.084;8.646;2023-02-03T15:05:56;0.80;;;0.80;;
20844;SDS011;10583;49.084;8.646;2023-02-03T15:08:38;1.10;;;1.10;;
20844;SDS011;10583;49.084;8.646;2023-02-03T15:11:15;1.20;;;1.20;;
20844;SDS011;10583;49.084;8.646;2023-02-03T15:13:51;0.70;;;0.70;;
20844;SDS011;10583;49.084;8.646;2023-02-03T15:16:20;1.13;;;1.13;;
20844;SDS011;10583;49.084;8.646;2023-02-03T15:18:52;1.10;;;1.10;;
20844;SDS011;10583;49.084;8.646;2023-02-03T15:21:21;1.23;;;1.23;;
20844;SDS011;10583;49.084;8.646;2023-02-03T15:23:48;1.63;;;1.63;;
20844;SDS011;10583;49.084;8.646;2023-02-03T15:26:16;1.43;;;1.43;;
20844;SDS011;10583;49.084;8.646;2023-02-03T15:28:52;1.67;;;1.67;;
20844;SDS011;10583;49.084;8.646;2023-02-03T15:31:21;1.90;;;1.90;;
20844;SDS011;10583;49.084;8.646;2023-02-03T15:33:51;1.97;;;1.97;;
20844;SDS011;10583;49.084;8.646;2023-02-03T15:36:22;2.00;;;2.00;;
20844;SDS011;10583;49.084;8.646;2023-02-03T15:38:53;2.03;;;2.03;;